createdAt,value
2023-04-07T00:03:06.994Z,16.33
2023-04-07T00:08:10.606Z,16.40
2023-04-07T00:13:13.568Z,15.20
2023-04-07T00:18:16.376Z,15.73
2023-04-07T00:23:19.946Z,18.53
2023-04-07T00:28:22.932Z,18.67
2023-04-07T00:33:26.291Z,19.27
2023-04-07T00:38:29.229Z,19.20
2023-04-07T00:43:32.281Z,20.53
2023-04-07T00:48:36.599Z,16.70
2023-04-07T00:53:39.794Z,16.23
2023-04-07T00:58:44.484Z,18.87
2023-04-07T01:03:59.445Z,16.27
2023-04-07T01:09:12.264Z,16.93
2023-04-07T01:14:18.146Z,18.30
2023-04-07T01:19:53.344Z,18.50
2023-04-07T01:26:00.539Z,16.00
2023-04-07T01:31:05.711Z,17.43
2023-04-07T01:36:10.438Z,18.60
2023-04-07T01:41:15.586Z,18.10
2023-04-07T01:46:18.426Z,21.90
2023-04-07T01:51:23.440Z,17.60
2023-04-07T01:56:26.432Z,16.70
2023-04-07T02:01:29.959Z,19.20
2023-04-07T02:06:39.655Z,15.83
2023-04-07T02:11:45.527Z,17.67
2023-04-07T02:16:49.306Z,16.10
2023-04-07T02:21:53.180Z,16.00
2023-04-07T02:26:56.412Z,16.73
2023-04-07T02:31:59.211Z,19.13
2023-04-07T02:37:02.271Z,17.10
2023-04-07T02:42:05.704Z,18.77
2023-04-07T02:47:08.936Z,19.60
2023-04-07T02:52:12.717Z,23.03
2023-04-07T02:57:15.765Z,19.63
2023-04-07T03:02:19.317Z,21.93
2023-04-07T03:07:22.343Z,20.20
2023-04-07T03:12:25.709Z,20.67
2023-04-07T03:17:28.756Z,21.40
2023-04-07T03:22:32.085Z,20.70
2023-04-07T03:27:35.086Z,26.87
2023-04-07T03:32:38.127Z,20.60
2023-04-07T03:37:41.158Z,21.23
2023-04-07T03:42:44.075Z,21.37
2023-04-07T03:47:47.283Z,18.73
2023-04-07T03:52:50.229Z,23.30
2023-04-07T03:57:53.273Z,19.13
2023-04-07T04:02:56.276Z,20.37
2023-04-07T04:07:59.260Z,19.17
2023-04-07T04:13:04.072Z,19.03
2023-04-07T04:18:07.098Z,18.37
2023-04-07T04:23:10.168Z,17.30
2023-04-07T04:28:13.250Z,17.10
2023-04-07T04:33:16.182Z,17.10
2023-04-07T04:38:19.626Z,17.20
2023-04-07T04:43:22.560Z,14.83
2023-04-07T04:48:25.404Z,16.57
2023-04-07T04:53:28.788Z,21.70
2023-04-07T04:58:32.393Z,23.63
2023-04-07T05:03:36.017Z,17.70
2023-04-07T05:08:39.030Z,17.70
2023-04-07T05:13:42.014Z,18.67
2023-04-07T05:18:44.922Z,21.93
2023-04-07T05:23:48.042Z,22.73
2023-04-07T05:28:51.030Z,19.03
2023-04-07T05:33:53.913Z,18.90
2023-04-07T05:38:56.912Z,13.43
2023-04-07T05:43:59.700Z,14.83
2023-04-07T05:49:16.812Z,16.03
2023-04-07T05:54:22.759Z,16.70
2023-04-07T05:59:26.536Z,13.73
2023-04-07T06:04:29.703Z,17.53
2023-04-07T06:09:32.726Z,16.03
2023-04-07T06:14:35.719Z,23.63
2023-04-07T06:19:38.701Z,20.03
2023-04-07T06:24:41.881Z,14.67
2023-04-07T06:29:44.968Z,18.10
2023-04-07T06:34:48.014Z,29.53
2023-04-07T06:39:51.140Z,14.47
2023-04-07T06:44:53.929Z,18.07
2023-04-07T06:49:56.837Z,26.87
2023-04-07T06:54:59.800Z,20.53
2023-04-07T07:00:02.982Z,25.20
2023-04-07T07:05:11.669Z,19.83
2023-04-07T07:10:14.444Z,25.90
2023-04-07T07:15:18.166Z,22.27
2023-04-07T07:20:23.548Z,21.30
2023-04-07T07:25:29.705Z,24.27
2023-04-07T07:30:32.847Z,25.00
2023-04-07T07:35:37.971Z,28.77
2023-04-07T07:40:41.233Z,26.73
2023-04-07T07:45:44.381Z,24.53
2023-04-07T07:50:48.474Z,21.67
2023-04-07T07:55:51.927Z,25.77
2023-04-07T08:00:55.094Z,22.67
2023-04-07T08:05:58.149Z,23.03
2023-04-07T08:11:01.309Z,21.27
2023-04-07T08:16:04.616Z,27.00
2023-04-07T08:21:07.690Z,22.27
2023-04-07T08:26:11.105Z,27.37
2023-04-07T08:31:14.060Z,60.07
2023-04-07T08:36:17.013Z,59.87
2023-04-07T08:41:47.284Z,36.70
2023-04-07T08:46:56.200Z,26.50
2023-04-07T08:52:04.060Z,32.20
2023-04-07T08:57:09.091Z,23.47
2023-04-07T09:02:12.175Z,25.70
2023-04-07T09:07:15.820Z,22.53
2023-04-07T09:12:19.078Z,21.23
2023-04-07T09:17:22.396Z,20.07
2023-04-07T09:22:54.970Z,23.73
2023-04-07T09:28:04.842Z,23.07
2023-04-07T09:33:07.939Z,20.17
2023-04-07T09:38:11.257Z,21.80
2023-04-07T09:43:19.492Z,22.87
2023-04-07T09:48:22.424Z,19.10
2023-04-07T09:53:49.583Z,23.77
2023-04-07T09:58:53.349Z,22.53
2023-04-07T10:03:57.141Z,25.20
2023-04-07T10:09:02.052Z,24.40
2023-04-07T10:14:05.709Z,25.43
2023-04-07T10:19:09.295Z,21.07
2023-04-07T10:24:51.755Z,23.93
2023-04-07T10:29:55.721Z,28.67
2023-04-07T10:35:01.312Z,23.70
2023-04-07T10:40:19.625Z,24.70
2023-04-07T10:45:48.391Z,20.37
2023-04-07T10:51:07.975Z,22.80
2023-04-07T10:56:11.164Z,23.43
2023-04-07T11:01:14.071Z,22.77
2023-04-07T11:06:17.071Z,36.37
2023-04-07T11:11:41.759Z,27.30
2023-04-07T11:16:45.864Z,23.93
2023-04-07T11:21:49.291Z,21.97
2023-04-07T11:26:52.278Z,20.33
2023-04-07T11:31:58.460Z,20.10
2023-04-07T11:37:25.001Z,18.33
2023-04-07T11:42:36.835Z,25.20
2023-04-07T11:47:40.968Z,18.60
2023-04-07T11:52:48.875Z,17.00
2023-04-07T11:57:52.781Z,19.40
2023-04-07T12:02:56.741Z,19.93
2023-04-07T12:08:00.369Z,21.63
2023-04-07T12:13:03.566Z,20.90
2023-04-07T12:18:06.976Z,19.97
2023-04-07T12:23:09.999Z,25.67
2023-04-07T12:28:12.967Z,25.97
2023-04-07T12:33:15.987Z,24.33
2023-04-07T12:38:19.098Z,25.63
2023-04-07T12:43:22.075Z,22.70
2023-04-07T12:48:27.396Z,21.57
2023-04-07T12:53:30.420Z,29.57
2023-04-07T12:58:33.455Z,25.97
2023-04-07T13:03:36.604Z,31.90
2023-04-07T13:08:40.841Z,28.93
2023-04-07T13:13:45.087Z,30.63
2023-04-07T13:18:48.091Z,31.53
2023-04-07T13:23:51.686Z,26.67
2023-04-07T13:28:54.753Z,24.03
2023-04-07T13:33:57.727Z,27.27
2023-04-07T13:39:00.790Z,33.87
2023-04-07T13:44:03.781Z,29.80
2023-04-07T13:49:07.505Z,33.03
2023-04-07T13:54:10.758Z,29.10
2023-04-07T13:59:13.694Z,26.33
2023-04-07T14:04:16.754Z,28.53
2023-04-07T14:09:20.029Z,34.03
2023-04-07T14:14:23.387Z,30.47
2023-04-07T14:19:26.498Z,23.33
2023-04-07T14:24:29.462Z,27.13
2023-04-07T14:29:32.777Z,26.53
2023-04-07T14:34:35.919Z,24.93
2023-04-07T14:39:39.519Z,27.30
2023-04-07T14:44:42.885Z,26.03
2023-04-07T14:49:45.924Z,43.57
2023-04-07T14:54:49.122Z,31.87
2023-04-07T14:59:52.181Z,25.30
2023-04-07T15:04:55.794Z,23.37
2023-04-07T15:09:59.906Z,30.03
2023-04-07T15:15:03.949Z,19.23
2023-04-07T15:20:07.576Z,31.33
2023-04-07T15:25:10.665Z,26.27
2023-04-07T15:30:13.829Z,25.23
2023-04-07T15:35:17.331Z,22.47
2023-04-07T15:40:20.748Z,21.87
2023-04-07T15:45:23.897Z,25.30
2023-04-07T15:50:29.924Z,22.53
2023-04-07T15:55:34.801Z,19.57
2023-04-07T16:00:39.305Z,21.63
2023-04-07T16:05:42.301Z,24.40
2023-04-07T16:10:45.760Z,28.73
2023-04-07T16:15:48.665Z,29.67
2023-04-07T16:20:51.811Z,60.73
2023-04-07T16:25:54.717Z,72.50
2023-04-07T16:30:57.547Z,33.40
2023-04-07T16:36:00.531Z,45.70
2023-04-07T16:41:04.811Z,48.97
2023-04-07T16:46:09.280Z,40.80
2023-04-07T16:51:19.594Z,36.50
2023-04-07T16:56:24.854Z,36.93
2023-04-07T17:01:30.143Z,40.23
2023-04-07T17:06:33.207Z,36.10
2023-04-07T17:11:36.205Z,41.80
2023-04-07T17:16:39.765Z,42.43
2023-04-07T17:21:43.317Z,42.80
2023-04-07T17:26:46.680Z,34.33
2023-04-07T17:31:49.947Z,43.27
2023-04-07T17:36:52.891Z,51.53
2023-04-07T17:41:55.771Z,57.13
2023-04-07T17:46:59.063Z,51.23
2023-04-07T17:52:02.056Z,49.27
2023-04-07T17:57:06.518Z,38.87
2023-04-07T18:02:10.312Z,42.43
2023-04-07T18:07:13.581Z,47.27
2023-04-07T18:12:16.499Z,48.47
2023-04-07T18:17:19.495Z,36.30
2023-04-07T18:22:22.680Z,36.43
2023-04-07T18:27:28.407Z,44.63
2023-04-07T18:32:31.441Z,36.57
2023-04-07T18:37:34.532Z,34.63
2023-04-07T18:42:37.467Z,38.77
2023-04-07T18:47:40.525Z,30.50
2023-04-07T18:52:43.654Z,34.93
2023-04-07T18:57:46.790Z,36.03
2023-04-07T19:02:49.894Z,40.37
2023-04-07T19:07:53.009Z,36.57
2023-04-07T19:12:56.040Z,32.73
2023-04-07T19:17:59.797Z,38.13
2023-04-07T19:23:08.297Z,40.07
2023-04-07T19:28:11.606Z,39.60
2023-04-07T19:33:14.728Z,39.27
2023-04-07T19:38:18.319Z,37.40
2023-04-07T19:43:21.327Z,33.33
2023-04-07T19:48:25.352Z,37.00
2023-04-07T19:53:29.377Z,36.57
2023-04-07T19:58:34.475Z,38.70
2023-04-07T20:03:39.897Z,32.07
2023-04-07T20:08:44.327Z,41.17
2023-04-07T20:13:49.153Z,41.43
2023-04-07T20:18:52.366Z,32.27
2023-04-07T20:23:55.274Z,38.27
2023-04-07T20:28:58.244Z,38.00
2023-04-07T20:34:01.363Z,39.27
2023-04-07T20:39:04.373Z,35.23
2023-04-07T20:44:09.447Z,36.50
2023-04-07T20:49:12.474Z,43.83
2023-04-07T20:54:17.019Z,38.10
2023-04-07T20:59:19.923Z,45.53
2023-04-07T21:04:24.764Z,52.73
2023-04-07T21:09:28.002Z,47.57
2023-04-07T21:14:32.208Z,38.30
2023-04-07T21:19:36.733Z,36.50
2023-04-07T21:24:40.246Z,36.37
2023-04-07T21:29:43.234Z,34.60
2023-04-07T21:34:46.248Z,31.47
2023-04-07T21:39:52.767Z,32.50
2023-04-07T21:44:55.889Z,27.77
2023-04-07T21:49:59.870Z,29.70
2023-04-07T21:55:02.884Z,33.20
2023-04-07T22:00:09.626Z,36.67
2023-04-07T22:05:12.701Z,30.23
2023-04-07T22:10:15.815Z,28.27
2023-04-07T22:15:19.047Z,24.93
2023-04-07T22:20:22.356Z,24.03
2023-04-07T22:25:26.012Z,19.40
2023-04-07T22:30:29.073Z,21.10
2023-04-07T22:35:32.186Z,22.63
2023-04-07T22:40:35.403Z,23.53
2023-04-07T22:45:38.383Z,32.23
2023-04-07T22:50:41.292Z,30.30
2023-04-07T22:55:44.393Z,31.93
2023-04-07T23:00:47.909Z,24.20
2023-04-07T23:05:50.917Z,34.13
2023-04-07T23:10:54.031Z,28.80
2023-04-07T23:15:58.122Z,38.43
2023-04-07T23:21:01.647Z,36.57
2023-04-07T23:26:06.796Z,26.23
2023-04-07T23:31:09.884Z,29.87
2023-04-07T23:36:12.835Z,33.47
2023-04-07T23:41:16.437Z,34.07
2023-04-07T23:46:19.581Z,31.40
2023-04-07T23:51:22.927Z,43.93
2023-04-07T23:56:26.224Z,31.93
